Flight Track Log - Related Links

Times and Time Zones

All times are in EDT time to prevent confusion due to time zone crossing. See the QXE2326 flight status page for this flight to view local times or setup timezone preferences in your user account.


Time Position Orientation Groundspeed Altitude Reporting Facility
EDT Latitude Longitude Course Direction KTS MPH feet Rate Location/Type
Fri 02:54:46 PM 47.4603 -122.3131 North 132 152 1,100  Level Seattle Center
Fri 02:55:23 PM 47.4839 -122.3097 North 141 162 2,100 1,653 Climbing Seattle Center
Fri 02:56:24 PM 47.5269 -122.2597 38° Northeast 211 243 3,800 1,525 Climbing Seattle Center
Fri 02:57:25 PM 47.5111 -122.1633 104° East 263 303 5,200 1,472 Climbing Seattle Center
Fri 02:58:10 PM 47.4994 -122.0908 103° East 257 296 6,400 1,770 Climbing Seattle Center
Fri 02:58:26 PM 47.4933 -122.0583 106° East 265 305 7,000 1,574 Climbing Seattle Center
Fri 02:59:11 PM 47.4786 -121.9772 105° East 265 305 8,000 1,377 Climbing Seattle Center
Fri 02:59:27 PM 47.4744 -121.9506 103° East 270 311 8,400 1,475 Climbing Seattle Center
Fri 03:00:12 PM 47.4575 -121.8667 107° East 278 320 9,500 1,528 Climbing Seattle Center
Fri 03:01:13 PM 47.4353 -121.7539 106° East 285 328 11,100 1,525 Climbing Seattle Center
Fri 03:02:14 PM 47.4272 -121.6381 96° East 287 330 12,600 1,475 Climbing Seattle Center
Fri 03:03:15 PM 47.4297 -121.5147 88° East 282 325 14,100 1,377 Climbing Seattle Center
Fri 03:04:16 PM 47.4361 -121.3986 85° East 284 327 15,400 1,279 Climbing Seattle Center
Fri 03:05:17 PM 47.4422 -121.2819 86° East 286 329 16,700 1,180 Climbing Seattle Center
Fri 03:06:18 PM 47.4461 -121.1694 87° East 285 328 17,800 885 Climbing Seattle Center
Fri 03:07:19 PM 47.4511 -121.0500 86° East 293 337 18,500 836 Climbing Seattle Center
Fri 03:08:20 PM 47.4561 -120.9317 86° East 292 336 19,500 984 Climbing Seattle Center
Fri 03:09:21 PM 47.4617 -120.8131 86° East 293 337 20,500 934 Climbing Seattle Center
Fri 03:10:22 PM 47.4669 -120.6942 86° East 291 335 21,400 885 Climbing Seattle Center
Fri 03:11:23 PM 47.4719 -120.5711 87° East 297 342 22,300 984 Climbing Seattle Center
Fri 03:12:24 PM 47.4775 -120.4269 87° East 295 339 23,400 934 Climbing Seattle Center
Fri 03:13:25 PM 47.4825 -120.3067 86° East 295 339 24,200 738 Climbing Seattle Center
Fri 03:14:26 PM 47.4869 -120.1872 87° East 294 338 24,900 393 Climbing Seattle Center
Fri 03:15:27 PM 47.4914 -120.0622 87° East 308 354 25,000 49 Climbing Seattle Center
Fri 03:16:28 PM 47.4964 -119.9267 87° East 328 377 25,000  Level Seattle Center
Fri 03:17:30 PM 47.5006 -119.7919 87° East 330 380 25,000  Level Seattle Center
Fri 03:18:31 PM 47.5056 -119.6569 87° East 329 379 25,000  Level Seattle Center
Fri 03:19:32 PM 47.5092 -119.5244 88° East 325 374 25,000  Level Seattle Center
Fri 03:20:33 PM 47.5139 -119.3922 87° East 323 372 25,000  Level Seattle Center
Fri 03:21:34 PM 47.5175 -119.2592 88° East 325 374 25,000  Level Seattle Center
Fri 03:22:35 PM 47.5217 -119.1275 87° East 323 372 25,000  Level Seattle Center
Fri 03:23:36 PM 47.5253 -118.9956 88° East 321 369 25,000  Level Seattle Center
Fri 03:24:37 PM 47.5294 -118.8389 88° East 319 367 25,000  Level Seattle Center
Fri 03:25:38 PM 47.5331 -118.7078 88° East 319 367 25,000  Level Seattle Center
Fri 03:26:39 PM 47.5358 -118.5758 88° East 321 369 25,000  Level Seattle Center
Fri 03:27:40 PM 47.5397 -118.4453 87° East 320 368 25,000  Level Seattle Center
Fri 03:28:41 PM 47.5433 -118.3131 88° East 321 369 25,000  Level Seattle Center
Fri 03:29:42 PM 47.5464 -118.1819 88° East 321 369 25,000  Level Seattle Center
Fri 03:30:44 PM 47.5486 -118.0492 89° East 321 369 25,000  Level Seattle Center
Fri 03:31:45 PM 47.5519 -117.9189 88° East 321 369 25,000  Level Seattle Center
Fri 03:32:46 PM 47.5539 -117.7869 89° East 320 368 25,000  Level Seattle Center
Fri 03:33:47 PM 47.5553 -117.6558 89° East 320 368 25,000  Level Seattle Center
Fri 03:34:48 PM 47.5578 -117.5244 88° East 321 369 25,000  Level Seattle Center
Fri 03:35:49 PM 47.5606 -117.3675 88° East 320 368 25,000  Level Seattle Center
Fri 03:36:50 PM 47.5614 -117.2375 89° East 318 366 25,000  Level Seattle Center
Fri 03:37:51 PM 47.5619 -117.1089 90° East 317 365 25,000  Level Seattle Center
Fri 03:38:52 PM 47.5644 -116.9858 88° East 322 371 25,000  Level Seattle Center
Fri 03:39:54 PM 47.5656 -116.8558 89° East 321 369 25,000  Level Seattle Center
Fri 03:40:55 PM 47.5669 -116.7017 89° East 316 364 25,000  Level Seattle Center
Fri 03:41:56 PM 47.5672 -116.5714 90° East 316 364 25,000  Level Seattle Center
Fri 03:42:57 PM 47.5683 -116.4403 89° East 319 367 25,000  Level Seattle Center
Fri 03:43:58 PM 47.5681 -116.3103 90° East 318 366 25,000  Level Seattle Center
Fri 03:44:59 PM 47.5692 -116.1803 89° East 317 365 25,000  Level Seattle Center
Fri 03:46:00 PM 47.5697 -116.0508 90° East 316 364 25,000  Level Seattle Center
Fri 03:47:01 PM 47.5703 -115.9186 90° East 319 367 25,000  Level Seattle Center
Fri 03:48:02 PM 47.5697 -115.7869 90° East 321 369 25,000  Level Seattle Center
Fri 03:49:03 PM 47.5706 -115.6433 89° East 322 371 25,000  Level Seattle Center
Fri 03:50:04 PM 47.5700 -115.5106 90° East 324 373 25,000  Level Seattle Center
Fri 03:51:05 PM 47.5694 -115.3764 90° East 325 374 25,000  Level Seattle Center
Fri 03:52:06 PM 47.5689 -115.2433 90° East 326 375 25,000  Level Seattle Center
Fri 03:53:07 PM 47.5678 -115.1092 91° East 327 376 25,000  Level Seattle Center
Fri 03:54:08 PM 47.5661 -114.9739 91° East 329 379 25,000  Level Seattle Center
Fri 03:55:09 PM 47.5650 -114.8386 91° East 330 380 25,000  Level Seattle Center
Fri 03:56:10 PM 47.5639 -114.6758 91° East 332 382 25,000  Level Seattle Center
Fri 03:57:11 PM 47.5628 -114.5411 91° East 330 380 25,000  Level Seattle Center
Fri 03:58:17 PM 47.5606 -114.4061 91° East 329 379 25,000  Level Salt Lake Center
Fri 03:59:19 PM 47.5589 -114.2714 91° East 330 380 25,000  Level Salt Lake Center
Fri 04:00:20 PM 47.5572 -114.1367 91° East 330 380 25,000  Level Salt Lake Center
Fri 04:01:22 PM 47.5547 -113.9758 91° East 329 379 25,000  Level Salt Lake Center
Fri 04:02:23 PM 47.5517 -113.8414 92° East 329 379 25,000  Level Salt Lake Center
Fri 04:03:25 PM 47.5489 -113.7069 92° East 328 377 25,000  Level Salt Lake Center
Fri 04:05:00 PM 47.5333 -113.5095 90° East  Level FlightAware Approximate
Fri 04:12:00 PM 47.5167 -112.6350 90° East  Level FlightAware Approximate
Fri 04:13:00 PM 47.5136 -112.5102 96° East  Level FlightAware Approximate
Fri 04:14:00 PM 47.5041 -112.3859 96° East  Level FlightAware Approximate
Fri 04:15:00 PM 47.5001 -112.2612 90° East  Level FlightAware Approximate
Fri 04:16:00 PM 47.5000 -112.1362 90° East  Level FlightAware Approximate
Fri 04:17:00 PM 47.4996 -112.0111 96° East  Level FlightAware Approximate
Fri 04:18:00 PM 47.4914 -111.8867 96° East  Level FlightAware Approximate
Fri 04:19:00 PM 47.4833 -111.7623 90° East  Level FlightAware Approximate
Fri 04:20:00 PM 47.4834 -111.6372 90° East  Level FlightAware Approximate
Fri 04:21:00 PM 47.4833 -111.5122 90° East  Level FlightAware Approximate
Fri 04:22:00 PM 47.4833 -111.3872 90° East  Level FlightAware Approximate
Fri 04:23:00 PM 47.4827 -111.3706 146° Southeast  Level Estimated
Fri 04:24:00 PM 47.4827 -111.3706 146° Southeast  Level Estimated
Fri 04:25:00 PM 47.4827 -111.3706 146° Southeast  Level Estimated
Fri 04:26:00 PM 47.4827 -111.3706 146° Southeast  Level Estimated
Fri 04:27:00 PM 47.4827 -111.3706 146° Southeast  Level Estimated
Fri 04:28:00 PM 47.4827 -111.3706 146° Southeast  Level Estimated
Fri 04:29:00 PM 47.4827 -111.3706 146° Southeast  Level Estimated
Fri 04:30:00 PM 47.4827 -111.3706 146° Southeast  Level Estimated
Fri 04:31:00 PM 47.4827 -111.3706 146° Southeast  Level Estimated
Fri 04:32:00 PM 47.4827 -111.3706 146° Southeast  Level Estimated
Fri 04:33:00 PM 47.4827 -111.3706 146° Southeast  Level Estimated
Fri 04:34:00 PM 47.4827 -111.3706 146° Southeast  Level Estimated
Fri 04:35:00 PM 47.4827 -111.3706 146° Southeast  Level Estimated
Fri 04:36:00 PM 47.4827 -111.3706 146° Southeast  Level Estimated
Fri 04:37:00 PM 47.4827 -111.3706 146° Southeast  Level Estimated

Login

Don't have an account? Register now (free) for customized features, flight alerts, and more!